sensor_id;sensor_type;location;lat;lon;timestamp;P1;durP1;ratioP1;P2;durP2;ratioP2
74892;SDS011;63446;56.272;43.922;2023-04-06T00:01:16;8.90;;;1.83;;
74892;SDS011;63446;56.272;43.922;2023-04-06T00:03:43;5.00;;;1.88;;
74892;SDS011;63446;56.272;43.922;2023-04-06T00:06:08;9.52;;;2.05;;
74892;SDS011;63446;56.272;43.922;2023-04-06T00:08:34;11.18;;;2.00;;
74892;SDS011;63446;56.272;43.922;2023-04-06T00:11:00;6.63;;;1.70;;
74892;SDS011;63446;56.272;43.922;2023-04-06T00:13:26;5.33;;;1.80;;
74892;SDS011;63446;56.272;43.922;2023-04-06T00:15:51;7.25;;;1.85;;
74892;SDS011;63446;56.272;43.922;2023-04-06T00:18:17;5.57;;;1.63;;
74892;SDS011;63446;56.272;43.922;2023-04-06T00:20:43;5.00;;;1.80;;
74892;SDS011;63446;56.272;43.922;2023-04-06T00:23:09;6.50;;;1.90;;
74892;SDS011;63446;56.272;43.922;2023-04-06T00:25:35;6.13;;;1.60;;
74892;SDS011;63446;56.272;43.922;2023-04-06T00:28:00;3.50;;;1.50;;
74892;SDS011;63446;56.272;43.922;2023-04-06T00:30:26;7.13;;;2.03;;
74892;SDS011;63446;56.272;43.922;2023-04-06T00:32:52;4.82;;;1.85;;
74892;SDS011;63446;56.272;43.922;2023-04-06T00:35:17;4.47;;;1.60;;
74892;SDS011;63446;56.272;43.922;2023-04-06T00:37:46;5.03;;;1.52;;
74892;SDS011;63446;56.272;43.922;2023-04-06T00:40:13;4.30;;;1.63;;
74892;SDS011;63446;56.272;43.922;2023-04-06T00:42:39;5.33;;;1.77;;
74892;SDS011;63446;56.272;43.922;2023-04-06T00:45:05;4.68;;;1.80;;
74892;SDS011;63446;56.272;43.922;2023-04-06T00:47:32;5.20;;;1.73;;
74892;SDS011;63446;56.272;43.922;2023-04-06T00:49:58;7.28;;;2.08;;
74892;SDS011;63446;56.272;43.922;2023-04-06T00:52:25;4.77;;;1.60;;
74892;SDS011;63446;56.272;43.922;2023-04-06T00:54:52;6.35;;;1.90;;
74892;SDS011;63446;56.272;43.922;2023-04-06T00:57:19;9.40;;;1.50;;
74892;SDS011;63446;56.272;43.922;2023-04-06T00:59:50;8.57;;;3.15;;
74892;SDS011;63446;56.272;43.922;2023-04-06T01:02:18;5.97;;;2.05;;
74892;SDS011;63446;56.272;43.922;2023-04-06T01:04:47;5.57;;;1.60;;
74892;SDS011;63446;56.272;43.922;2023-04-06T01:07:22;4.80;;;1.80;;
74892;SDS011;63446;56.272;43.922;2023-04-06T01:10:24;5.85;;;1.80;;
74892;SDS011;63446;56.272;43.922;2023-04-06T01:12:53;5.70;;;1.80;;
74892;SDS011;63446;56.272;43.922;2023-04-06T01:15:36;5.28;;;1.90;;
74892;SDS011;63446;56.272;43.922;2023-04-06T01:18:07;5.17;;;1.70;;
74892;SDS011;63446;56.272;43.922;2023-04-06T01:20:40;7.32;;;1.50;;
74892;SDS011;63446;56.272;43.922;2023-04-06T01:23:06;6.18;;;2.13;;
74892;SDS011;63446;56.272;43.922;2023-04-06T01:25:33;7.32;;;1.73;;
74892;SDS011;63446;56.272;43.922;2023-04-06T01:28:06;6.05;;;1.75;;
74892;SDS011;63446;56.272;43.922;2023-04-06T01:30:52;5.03;;;1.90;;
74892;SDS011;63446;56.272;43.922;2023-04-06T01:33:38;5.55;;;2.00;;
74892;SDS011;63446;56.272;43.922;2023-04-06T01:36:07;4.57;;;1.50;;
74892;SDS011;63446;56.272;43.922;2023-04-06T01:38:33;7.28;;;2.28;;
74892;SDS011;63446;56.272;43.922;2023-04-06T01:41:00;5.97;;;1.90;;
74892;SDS011;63446;56.272;43.922;2023-04-06T01:43:31;7.87;;;1.97;;
74892;SDS011;63446;56.272;43.922;2023-04-06T01:46:03;6.30;;;2.00;;
74892;SDS011;63446;56.272;43.922;2023-04-06T01:48:33;5.68;;;1.88;;
74892;SDS011;63446;56.272;43.922;2023-04-06T01:51:06;5.50;;;1.70;;
74892;SDS011;63446;56.272;43.922;2023-04-06T01:53:37;7.05;;;1.75;;
74892;SDS011;63446;56.272;43.922;2023-04-06T01:56:05;7.17;;;2.30;;
74892;SDS011;63446;56.272;43.922;2023-04-06T01:58:36;5.85;;;1.73;;
74892;SDS011;63446;56.272;43.922;2023-04-06T02:01:02;4.95;;;1.70;;
74892;SDS011;63446;56.272;43.922;2023-04-06T02:03:35;7.45;;;2.00;;
74892;SDS011;63446;56.272;43.922;2023-04-06T02:06:06;5.20;;;1.55;;
74892;SDS011;63446;56.272;43.922;2023-04-06T02:08:37;7.70;;;1.90;;
74892;SDS011;63446;56.272;43.922;2023-04-06T02:11:03;6.55;;;2.00;;
74892;SDS011;63446;56.272;43.922;2023-04-06T02:13:35;5.57;;;1.63;;
74892;SDS011;63446;56.272;43.922;2023-04-06T02:16:01;6.27;;;2.27;;
74892;SDS011;63446;56.272;43.922;2023-04-06T02:18:30;7.18;;;2.33;;
74892;SDS011;63446;56.272;43.922;2023-04-06T02:20:56;5.25;;;1.67;;
74892;SDS011;63446;56.272;43.922;2023-04-06T02:23:21;5.32;;;1.90;;
74892;SDS011;63446;56.272;43.922;2023-04-06T02:25:48;4.63;;;1.40;;
74892;SDS011;63446;56.272;43.922;2023-04-06T02:28:14;5.90;;;1.90;;
74892;SDS011;63446;56.272;43.922;2023-04-06T02:30:40;8.77;;;2.13;;
74892;SDS011;63446;56.272;43.922;2023-04-06T02:33:07;7.73;;;2.13;;
74892;SDS011;63446;56.272;43.922;2023-04-06T02:35:40;7.35;;;1.80;;
74892;SDS011;63446;56.272;43.922;2023-04-06T02:38:07;6.00;;;1.50;;
74892;SDS011;63446;56.272;43.922;2023-04-06T02:40:33;7.47;;;1.90;;
74892;SDS011;63446;56.272;43.922;2023-04-06T02:43:07;4.93;;;1.70;;
74892;SDS011;63446;56.272;43.922;2023-04-06T02:45:34;7.28;;;1.95;;
74892;SDS011;63446;56.272;43.922;2023-04-06T02:48:01;4.97;;;1.90;;
74892;SDS011;63446;56.272;43.922;2023-04-06T02:50:29;6.07;;;1.77;;
74892;SDS011;63446;56.272;43.922;2023-04-06T02:52:59;7.05;;;1.80;;
74892;SDS011;63446;56.272;43.922;2023-04-06T02:55:25;6.38;;;2.10;;
74892;SDS011;63446;56.272;43.922;2023-04-06T02:57:51;8.40;;;1.90;;
74892;SDS011;63446;56.272;43.922;2023-04-06T03:00:21;8.48;;;2.10;;
74892;SDS011;63446;56.272;43.922;2023-04-06T03:02:47;4.53;;;1.80;;
74892;SDS011;63446;56.272;43.922;2023-04-06T03:05:15;7.28;;;1.77;;
74892;SDS011;63446;56.272;43.922;2023-04-06T03:07:42;6.53;;;2.00;;
74892;SDS011;63446;56.272;43.922;2023-04-06T03:10:15;5.77;;;2.07;;
74892;SDS011;63446;56.272;43.922;2023-04-06T03:12:45;7.85;;;2.08;;
74892;SDS011;63446;56.272;43.922;2023-04-06T03:15:41;8.05;;;1.77;;
74892;SDS011;63446;56.272;43.922;2023-04-06T03:18:14;9.57;;;1.60;;
74892;SDS011;63446;56.272;43.922;2023-04-06T03:20:44;5.07;;;1.98;;
74892;SDS011;63446;56.272;43.922;2023-04-06T03:23:10;4.17;;;1.83;;
74892;SDS011;63446;56.272;43.922;2023-04-06T03:25:39;5.18;;;1.75;;
74892;SDS011;63446;56.272;43.922;2023-04-06T03:28:08;7.18;;;2.17;;
74892;SDS011;63446;56.272;43.922;2023-04-06T03:30:40;6.38;;;1.90;;
74892;SDS011;63446;56.272;43.922;2023-04-06T03:33:06;7.47;;;1.98;;
74892;SDS011;63446;56.272;43.922;2023-04-06T03:35:39;5.40;;;2.30;;
74892;SDS011;63446;56.272;43.922;2023-04-06T03:38:07;5.25;;;2.25;;
74892;SDS011;63446;56.272;43.922;2023-04-06T03:40:32;4.43;;;2.40;;
74892;SDS011;63446;56.272;43.922;2023-04-06T03:42:58;7.43;;;2.40;;
74892;SDS011;63446;56.272;43.922;2023-04-06T03:45:25;5.75;;;2.50;;
74892;SDS011;63446;56.272;43.922;2023-04-06T03:47:51;6.95;;;2.45;;
74892;SDS011;63446;56.272;43.922;2023-04-06T03:50:18;4.80;;;2.38;;
74892;SDS011;63446;56.272;43.922;2023-04-06T03:52:44;4.90;;;2.60;;
74892;SDS011;63446;56.272;43.922;2023-04-06T03:55:10;5.55;;;2.45;;
74892;SDS011;63446;56.272;43.922;2023-04-06T03:57:38;5.43;;;2.63;;
74892;SDS011;63446;56.272;43.922;2023-04-06T04:00:04;9.40;;;2.90;;
74892;SDS011;63446;56.272;43.922;2023-04-06T04:02:38;6.18;;;2.78;;
74892;SDS011;63446;56.272;43.922;2023-04-06T04:05:05;9.32;;;3.15;;
74892;SDS011;63446;56.272;43.922;2023-04-06T04:07:31;6.80;;;2.80;;
74892;SDS011;63446;56.272;43.922;2023-04-06T04:09:57;8.20;;;3.40;;
74892;SDS011;63446;56.272;43.922;2023-04-06T04:12:23;11.25;;;3.03;;
74892;SDS011;63446;56.272;43.922;2023-04-06T04:14:49;5.78;;;3.20;;
74892;SDS011;63446;56.272;43.922;2023-04-06T04:17:14;7.20;;;2.70;;
74892;SDS011;63446;56.272;43.922;2023-04-06T04:19:40;8.50;;;3.33;;
74892;SDS011;63446;56.272;43.922;2023-04-06T04:22:06;7.68;;;3.55;;
74892;SDS011;63446;56.272;43.922;2023-04-06T04:24:36;10.50;;;3.50;;
74892;SDS011;63446;56.272;43.922;2023-04-06T04:27:02;8.73;;;3.35;;
74892;SDS011;63446;56.272;43.922;2023-04-06T04:29:30;8.02;;;3.58;;
74892;SDS011;63446;56.272;43.922;2023-04-06T04:32:01;9.27;;;3.85;;
74892;SDS011;63446;56.272;43.922;2023-04-06T04:34:27;6.60;;;3.57;;
74892;SDS011;63446;56.272;43.922;2023-04-06T04:36:54;12.43;;;3.50;;
74892;SDS011;63446;56.272;43.922;2023-04-06T04:39:29;11.43;;;3.75;;
74892;SDS011;63446;56.272;43.922;2023-04-06T04:42:03;14.15;;;4.20;;
74892;SDS011;63446;56.272;43.922;2023-04-06T04:44:31;7.73;;;3.53;;
74892;SDS011;63446;56.272;43.922;2023-04-06T04:46:57;11.07;;;4.00;;
74892;SDS011;63446;56.272;43.922;2023-04-06T04:49:30;9.55;;;4.15;;
74892;SDS011;63446;56.272;43.922;2023-04-06T04:51:57;8.93;;;3.55;;
74892;SDS011;63446;56.272;43.922;2023-04-06T04:54:29;11.57;;;4.05;;
74892;SDS011;63446;56.272;43.922;2023-04-06T04:56:58;8.80;;;3.87;;
74892;SDS011;63446;56.272;43.922;2023-04-06T04:59:38;7.45;;;4.18;;
74892;SDS011;63446;56.272;43.922;2023-04-06T05:02:12;6.30;;;4.22;;
74892;SDS011;63446;56.272;43.922;2023-04-06T05:04:48;6.75;;;4.00;;
74892;SDS011;63446;56.272;43.922;2023-04-06T05:07:19;12.32;;;4.13;;
74892;SDS011;63446;56.272;43.922;2023-04-06T05:09:48;10.20;;;4.17;;
74892;SDS011;63446;56.272;43.922;2023-04-06T05:12:14;7.53;;;3.90;;
74892;SDS011;63446;56.272;43.922;2023-04-06T05:14:50;12.25;;;4.32;;
74892;SDS011;63446;56.272;43.922;2023-04-06T05:17:19;9.52;;;4.10;;
74892;SDS011;63446;56.272;43.922;2023-04-06T05:19:46;14.07;;;4.32;;
74892;SDS011;63446;56.272;43.922;2023-04-06T05:22:15;9.43;;;3.70;;
74892;SDS011;63446;56.272;43.922;2023-04-06T05:24:47;8.65;;;4.15;;
74892;SDS011;63446;56.272;43.922;2023-04-06T05:27:12;7.47;;;4.40;;
74892;SDS011;63446;56.272;43.922;2023-04-06T05:29:38;6.43;;;4.40;;
74892;SDS011;63446;56.272;43.922;2023-04-06T05:32:04;9.15;;;4.68;;
74892;SDS011;63446;56.272;43.922;2023-04-06T05:34:32;6.90;;;3.63;;
74892;SDS011;63446;56.272;43.922;2023-04-06T05:37:01;7.87;;;2.80;;
74892;SDS011;63446;56.272;43.922;2023-04-06T05:39:27;9.82;;;2.85;;
74892;SDS011;63446;56.272;43.922;2023-04-06T05:41:53;7.80;;;2.60;;
74892;SDS011;63446;56.272;43.922;2023-04-06T05:44:33;9.27;;;2.53;;
74892;SDS011;63446;56.272;43.922;2023-04-06T05:47:07;6.90;;;2.35;;
74892;SDS011;63446;56.272;43.922;2023-04-06T05:49:35;5.45;;;2.00;;
74892;SDS011;63446;56.272;43.922;2023-04-06T05:52:01;6.80;;;1.90;;
74892;SDS011;63446;56.272;43.922;2023-04-06T05:54:27;8.63;;;2.20;;
74892;SDS011;63446;56.272;43.922;2023-04-06T05:56:58;5.35;;;1.70;;
74892;SDS011;63446;56.272;43.922;2023-04-06T05:59:24;5.35;;;1.60;;
74892;SDS011;63446;56.272;43.922;2023-04-06T06:01:52;4.75;;;1.85;;
74892;SDS011;63446;56.272;43.922;2023-04-06T06:04:19;4.90;;;1.55;;
74892;SDS011;63446;56.272;43.922;2023-04-06T06:06:46;5.10;;;1.73;;
74892;SDS011;63446;56.272;43.922;2023-04-06T06:09:14;6.43;;;1.73;;
74892;SDS011;63446;56.272;43.922;2023-04-06T06:11:48;5.28;;;1.60;;
74892;SDS011;63446;56.272;43.922;2023-04-06T06:14:17;6.10;;;1.40;;
74892;SDS011;63446;56.272;43.922;2023-04-06T06:16:43;4.40;;;1.55;;
74892;SDS011;63446;56.272;43.922;2023-04-06T06:19:11;5.93;;;1.40;;
74892;SDS011;63446;56.272;43.922;2023-04-06T06:21:37;6.65;;;1.23;;
74892;SDS011;63446;56.272;43.922;2023-04-06T06:24:04;7.70;;;1.40;;
74892;SDS011;63446;56.272;43.922;2023-04-06T06:26:31;6.22;;;1.65;;
74892;SDS011;63446;56.272;43.922;2023-04-06T06:28:58;9.55;;;1.45;;
74892;SDS011;63446;56.272;43.922;2023-04-06T06:31:24;7.00;;;1.45;;
74892;SDS011;63446;56.272;43.922;2023-04-06T06:33:53;7.78;;;1.70;;
74892;SDS011;63446;56.272;43.922;2023-04-06T06:36:19;8.82;;;1.60;;
74892;SDS011;63446;56.272;43.922;2023-04-06T06:38:46;6.22;;;1.35;;
74892;SDS011;63446;56.272;43.922;2023-04-06T06:41:15;9.80;;;1.67;;
74892;SDS011;63446;56.272;43.922;2023-04-06T06:43:41;5.15;;;1.75;;
74892;SDS011;63446;56.272;43.922;2023-04-06T06:46:08;7.97;;;2.00;;
74892;SDS011;63446;56.272;43.922;2023-04-06T06:48:35;6.40;;;1.67;;
74892;SDS011;63446;56.272;43.922;2023-04-06T06:51:01;9.37;;;1.73;;
74892;SDS011;63446;56.272;43.922;2023-04-06T06:53:27;6.15;;;1.77;;
74892;SDS011;63446;56.272;43.922;2023-04-06T06:55:54;10.00;;;1.63;;
74892;SDS011;63446;56.272;43.922;2023-04-06T06:58:23;7.05;;;1.75;;
74892;SDS011;63446;56.272;43.922;2023-04-06T07:00:48;13.68;;;1.92;;
74892;SDS011;63446;56.272;43.922;2023-04-06T07:03:15;7.45;;;1.77;;
74892;SDS011;63446;56.272;43.922;2023-04-06T07:05:48;5.15;;;1.70;;
74892;SDS011;63446;56.272;43.922;2023-04-06T07:08:22;9.23;;;2.15;;
74892;SDS011;63446;56.272;43.922;2023-04-06T07:10:50;5.40;;;1.58;;
74892;SDS011;63446;56.272;43.922;2023-04-06T07:13:18;4.57;;;1.63;;
74892;SDS011;63446;56.272;43.922;2023-04-06T07:15:49;8.57;;;1.70;;
74892;SDS011;63446;56.272;43.922;2023-04-06T07:18:15;8.82;;;1.60;;
74892;SDS011;63446;56.272;43.922;2023-04-06T07:20:42;5.63;;;1.40;;
74892;SDS011;63446;56.272;43.922;2023-04-06T07:23:08;4.90;;;1.40;;
74892;SDS011;63446;56.272;43.922;2023-04-06T07:25:35;5.80;;;1.60;;
74892;SDS011;63446;56.272;43.922;2023-04-06T07:28:02;4.60;;;1.27;;
74892;SDS011;63446;56.272;43.922;2023-04-06T07:30:29;6.63;;;1.30;;
74892;SDS011;63446;56.272;43.922;2023-04-06T07:32:55;4.25;;;1.30;;
74892;SDS011;63446;56.272;43.922;2023-04-06T07:35:23;5.15;;;1.50;;
74892;SDS011;63446;56.272;43.922;2023-04-06T07:37:52;4.68;;;1.35;;
74892;SDS011;63446;56.272;43.922;2023-04-06T07:40:18;3.70;;;1.10;;
74892;SDS011;63446;56.272;43.922;2023-04-06T07:42:45;9.90;;;1.13;;
74892;SDS011;63446;56.272;43.922;2023-04-06T07:45:11;5.30;;;1.10;;
74892;SDS011;63446;56.272;43.922;2023-04-06T07:47:37;4.77;;;0.80;;
74892;SDS011;63446;56.272;43.922;2023-04-06T07:50:03;5.30;;;1.15;;
74892;SDS011;63446;56.272;43.922;2023-04-06T07:52:30;5.03;;;1.23;;
74892;SDS011;63446;56.272;43.922;2023-04-06T07:54:58;3.65;;;0.90;;
74892;SDS011;63446;56.272;43.922;2023-04-06T07:57:25;4.00;;;1.07;;
74892;SDS011;63446;56.272;43.922;2023-04-06T07:59:51;4.97;;;0.90;;
74892;SDS011;63446;56.272;43.922;2023-04-06T08:02:16;5.27;;;0.80;;
74892;SDS011;63446;56.272;43.922;2023-04-06T08:04:43;7.97;;;1.00;;
74892;SDS011;63446;56.272;43.922;2023-04-06T08:07:09;8.88;;;0.90;;
74892;SDS011;63446;56.272;43.922;2023-04-06T08:09:36;6.13;;;0.98;;
74892;SDS011;63446;56.272;43.922;2023-04-06T08:12:04;5.05;;;0.90;;
74892;SDS011;63446;56.272;43.922;2023-04-06T08:14:30;5.60;;;0.70;;
74892;SDS011;63446;56.272;43.922;2023-04-06T08:16:56;6.18;;;0.65;;
74892;SDS011;63446;56.272;43.922;2023-04-06T08:19:23;2.88;;;0.75;;
74892;SDS011;63446;56.272;43.922;2023-04-06T08:21:50;6.43;;;0.80;;
74892;SDS011;63446;56.272;43.922;2023-04-06T08:24:17;4.00;;;0.80;;
74892;SDS011;63446;56.272;43.922;2023-04-06T08:26:44;3.53;;;0.70;;
74892;SDS011;63446;56.272;43.922;2023-04-06T08:29:09;5.10;;;0.75;;
74892;SDS011;63446;56.272;43.922;2023-04-06T08:31:36;5.93;;;1.02;;
74892;SDS011;63446;56.272;43.922;2023-04-06T08:34:03;7.00;;;1.10;;
74892;SDS011;63446;56.272;43.922;2023-04-06T08:36:29;3.10;;;0.70;;
74892;SDS011;63446;56.272;43.922;2023-04-06T08:38:56;4.57;;;0.80;;
74892;SDS011;63446;56.272;43.922;2023-04-06T08:41:22;3.57;;;0.83;;
74892;SDS011;63446;56.272;43.922;2023-04-06T08:43:49;2.70;;;0.70;;
74892;SDS011;63446;56.272;43.922;2023-04-06T08:46:23;3.25;;;0.70;;
74892;SDS011;63446;56.272;43.922;2023-04-06T08:48:56;3.90;;;0.80;;
74892;SDS011;63446;56.272;43.922;2023-04-06T08:51:24;2.83;;;0.70;;
74892;SDS011;63446;56.272;43.922;2023-04-06T08:53:54;4.10;;;0.60;;
74892;SDS011;63446;56.272;43.922;2023-04-06T08:56:24;2.30;;;0.50;;
74892;SDS011;63446;56.272;43.922;2023-04-06T08:58:52;4.32;;;0.50;;
74892;SDS011;63446;56.272;43.922;2023-04-06T09:01:26;4.68;;;0.82;;
74892;SDS011;63446;56.272;43.922;2023-04-06T09:03:56;4.32;;;0.70;;
74892;SDS011;63446;56.272;43.922;2023-04-06T09:06:24;6.53;;;0.70;;
74892;SDS011;63446;56.272;43.922;2023-04-06T09:08:54;3.85;;;0.50;;
74892;SDS011;63446;56.272;43.922;2023-04-06T09:11:20;3.30;;;0.70;;
74892;SDS011;63446;56.272;43.922;2023-04-06T09:13:50;2.65;;;0.60;;
74892;SDS011;63446;56.272;43.922;2023-04-06T09:16:18;4.93;;;0.70;;
74892;SDS011;63446;56.272;43.922;2023-04-06T09:18:44;4.43;;;0.70;;
74892;SDS011;63446;56.272;43.922;2023-04-06T09:21:11;2.38;;;0.43;;
74892;SDS011;63446;56.272;43.922;2023-04-06T09:23:37;3.85;;;0.75;;
74892;SDS011;63446;56.272;43.922;2023-04-06T09:26:12;8.10;;;0.70;;
74892;SDS011;63446;56.272;43.922;2023-04-06T09:28:53;3.70;;;0.50;;
74892;SDS011;63446;56.272;43.922;2023-04-06T09:31:25;2.90;;;0.47;;
74892;SDS011;63446;56.272;43.922;2023-04-06T09:33:52;4.90;;;0.50;;
74892;SDS011;63446;56.272;43.922;2023-04-06T09:36:19;5.78;;;0.50;;
74892;SDS011;63446;56.272;43.922;2023-04-06T09:38:55;4.60;;;0.70;;
74892;SDS011;63446;56.272;43.922;2023-04-06T09:41:23;2.90;;;0.57;;
74892;SDS011;63446;56.272;43.922;2023-04-06T09:44:00;2.63;;;0.57;;
74892;SDS011;63446;56.272;43.922;2023-04-06T09:46:34;6.70;;;0.80;;
74892;SDS011;63446;56.272;43.922;2023-04-06T09:49:06;6.20;;;0.68;;
74892;SDS011;63446;56.272;43.922;2023-04-06T09:51:36;4.18;;;0.70;;
74892;SDS011;63446;56.272;43.922;2023-04-06T09:54:02;2.50;;;0.60;;
74892;SDS011;63446;56.272;43.922;2023-04-06T09:59:18;4.88;;;0.70;;
74892;SDS011;63446;56.272;43.922;2023-04-06T10:01:51;2.97;;;0.70;;
74892;SDS011;63446;56.272;43.922;2023-04-06T10:06:51;5.93;;;0.77;;
74892;SDS011;63446;56.272;43.922;2023-04-06T10:09:18;5.50;;;0.50;;
74892;SDS011;63446;56.272;43.922;2023-04-06T10:11:49;6.63;;;0.70;;
74892;SDS011;63446;56.272;43.922;2023-04-06T10:14:16;3.53;;;0.57;;
74892;SDS011;63446;56.272;43.922;2023-04-06T10:16:42;3.85;;;0.63;;
74892;SDS011;63446;56.272;43.922;2023-04-06T10:19:22;4.07;;;0.80;;
74892;SDS011;63446;56.272;43.922;2023-04-06T10:21:54;2.20;;;0.60;;
74892;SDS011;63446;56.272;43.922;2023-04-06T10:24:23;3.30;;;0.90;;
74892;SDS011;63446;56.272;43.922;2023-04-06T10:26:58;2.30;;;0.50;;
74892;SDS011;63446;56.272;43.922;2023-04-06T10:29:28;3.35;;;0.73;;
74892;SDS011;63446;56.272;43.922;2023-04-06T10:31:53;6.20;;;0.57;;
74892;SDS011;63446;56.272;43.922;2023-04-06T10:34:21;3.38;;;0.68;;
74892;SDS011;63446;56.272;43.922;2023-04-06T10:36:47;2.42;;;0.68;;
74892;SDS011;63446;56.272;43.922;2023-04-06T10:39:13;2.90;;;0.50;;
74892;SDS011;63446;56.272;43.922;2023-04-06T10:41:42;4.70;;;0.60;;
74892;SDS011;63446;56.272;43.922;2023-04-06T10:44:20;4.28;;;0.55;;
74892;SDS011;63446;56.272;43.922;2023-04-06T10:46:57;3.42;;;0.60;;
74892;SDS011;63446;56.272;43.922;2023-04-06T10:49:26;3.13;;;0.80;;
74892;SDS011;63446;56.272;43.922;2023-04-06T10:51:53;2.47;;;0.40;;
74892;SDS011;63446;56.272;43.922;2023-04-06T10:54:23;4.47;;;0.50;;
74892;SDS011;63446;56.272;43.922;2023-04-06T10:56:51;3.03;;;0.60;;
74892;SDS011;63446;56.272;43.922;2023-04-06T10:59:20;7.20;;;0.97;;
74892;SDS011;63446;56.272;43.922;2023-04-06T11:01:47;4.18;;;0.82;;
74892;SDS011;63446;56.272;43.922;2023-04-06T11:04:17;4.03;;;0.90;;
74892;SDS011;63446;56.272;43.922;2023-04-06T11:06:46;13.45;;;0.82;;
74892;SDS011;63446;56.272;43.922;2023-04-06T11:09:25;7.78;;;0.50;;
74892;SDS011;63446;56.272;43.922;2023-04-06T11:11:52;29.00;;;2.97;;
74892;SDS011;63446;56.272;43.922;2023-04-06T11:14:18;5.80;;;0.70;;
74892;SDS011;63446;56.272;43.922;2023-04-06T11:16:45;2.40;;;0.57;;
74892;SDS011;63446;56.272;43.922;2023-04-06T11:19:13;4.45;;;0.70;;
74892;SDS011;63446;56.272;43.922;2023-04-06T11:21:40;4.28;;;0.60;;
74892;SDS011;63446;56.272;43.922;2023-04-06T11:26:47;4.30;;;0.65;;
74892;SDS011;63446;56.272;43.922;2023-04-06T11:29:18;7.63;;;0.82;;
74892;SDS011;63446;56.272;43.922;2023-04-06T11:31:59;3.20;;;0.60;;
74892;SDS011;63446;56.272;43.922;2023-04-06T11:34:32;2.65;;;0.50;;
74892;SDS011;63446;56.272;43.922;2023-04-06T11:37:03;2.47;;;0.70;;
74892;SDS011;63446;56.272;43.922;2023-04-06T11:39:37;6.72;;;0.80;;
74892;SDS011;63446;56.272;43.922;2023-04-06T11:42:05;5.90;;;0.73;;
74892;SDS011;63446;56.272;43.922;2023-04-06T11:47:01;4.13;;;0.90;;
74892;SDS011;63446;56.272;43.922;2023-04-06T11:49:29;3.40;;;0.60;;
74892;SDS011;63446;56.272;43.922;2023-04-06T11:51:56;4.00;;;0.95;;
74892;SDS011;63446;56.272;43.922;2023-04-06T11:56:58;5.65;;;0.93;;
74892;SDS011;63446;56.272;43.922;2023-04-06T11:59:24;3.88;;;0.73;;
74892;SDS011;63446;56.272;43.922;2023-04-06T12:01:50;4.28;;;0.82;;
74892;SDS011;63446;56.272;43.922;2023-04-06T12:04:17;6.05;;;1.20;;
74892;SDS011;63446;56.272;43.922;2023-04-06T12:06:44;3.70;;;0.95;;
74892;SDS011;63446;56.272;43.922;2023-04-06T12:09:10;10.27;;;1.25;;
74892;SDS011;63446;56.272;43.922;2023-04-06T12:11:36;5.23;;;0.93;;
74892;SDS011;63446;56.272;43.922;2023-04-06T12:14:03;2.65;;;0.60;;
74892;SDS011;63446;56.272;43.922;2023-04-06T12:16:30;4.85;;;0.40;;
74892;SDS011;63446;56.272;43.922;2023-04-06T12:18:56;3.97;;;0.50;;
74892;SDS011;63446;56.272;43.922;2023-04-06T12:21:22;2.83;;;0.50;;
74892;SDS011;63446;56.272;43.922;2023-04-06T12:23:48;6.50;;;0.50;;
74892;SDS011;63446;56.272;43.922;2023-04-06T12:26:14;7.53;;;0.68;;
74892;SDS011;63446;56.272;43.922;2023-04-06T12:28:39;2.70;;;0.53;;
74892;SDS011;63446;56.272;43.922;2023-04-06T12:31:05;2.83;;;0.30;;
74892;SDS011;63446;56.272;43.922;2023-04-06T12:33:31;3.70;;;0.60;;
74892;SDS011;63446;56.272;43.922;2023-04-06T12:35:57;4.13;;;0.57;;
74892;SDS011;63446;56.272;43.922;2023-04-06T12:38:23;3.80;;;0.50;;
74892;SDS011;63446;56.272;43.922;2023-04-06T12:40:50;3.50;;;0.80;;
74892;SDS011;63446;56.272;43.922;2023-04-06T12:43:16;5.13;;;0.80;;
74892;SDS011;63446;56.272;43.922;2023-04-06T12:45:42;4.18;;;0.60;;
74892;SDS011;63446;56.272;43.922;2023-04-06T12:48:09;3.85;;;0.77;;
74892;SDS011;63446;56.272;43.922;2023-04-06T12:50:36;6.63;;;0.52;;
74892;SDS011;63446;56.272;43.922;2023-04-06T12:53:01;3.57;;;0.43;;
74892;SDS011;63446;56.272;43.922;2023-04-06T12:55:29;2.92;;;0.57;;
74892;SDS011;63446;56.272;43.922;2023-04-06T12:57:55;4.60;;;0.52;;
74892;SDS011;63446;56.272;43.922;2023-04-06T13:00:20;2.80;;;0.63;;
74892;SDS011;63446;56.272;43.922;2023-04-06T13:02:47;6.53;;;0.60;;
74892;SDS011;63446;56.272;43.922;2023-04-06T13:05:13;5.70;;;0.82;;
74892;SDS011;63446;56.272;43.922;2023-04-06T13:07:44;9.00;;;1.17;;
74892;SDS011;63446;56.272;43.922;2023-04-06T13:10:10;3.95;;;0.60;;
74892;SDS011;63446;56.272;43.922;2023-04-06T13:12:36;7.93;;;0.75;;
74892;SDS011;63446;56.272;43.922;2023-04-06T13:15:03;6.63;;;0.65;;
74892;SDS011;63446;56.272;43.922;2023-04-06T13:17:29;4.10;;;0.65;;
74892;SDS011;63446;56.272;43.922;2023-04-06T13:19:55;2.57;;;0.40;;
74892;SDS011;63446;56.272;43.922;2023-04-06T13:22:21;4.40;;;0.73;;
74892;SDS011;63446;56.272;43.922;2023-04-06T13:24:47;4.80;;;0.83;;
74892;SDS011;63446;56.272;43.922;2023-04-06T13:27:13;3.20;;;0.95;;
74892;SDS011;63446;56.272;43.922;2023-04-06T13:29:39;3.43;;;0.80;;
74892;SDS011;63446;56.272;43.922;2023-04-06T13:32:04;5.05;;;0.93;;
74892;SDS011;63446;56.272;43.922;2023-04-06T13:34:30;6.10;;;0.95;;
74892;SDS011;63446;56.272;43.922;2023-04-06T13:36:57;7.10;;;1.17;;
74892;SDS011;63446;56.272;43.922;2023-04-06T13:39:22;6.65;;;1.40;;
74892;SDS011;63446;56.272;43.922;2023-04-06T13:41:48;6.77;;;1.10;;
74892;SDS011;63446;56.272;43.922;2023-04-06T13:44:14;4.88;;;1.00;;
74892;SDS011;63446;56.272;43.922;2023-04-06T13:46:40;3.10;;;0.68;;
74892;SDS011;63446;56.272;43.922;2023-04-06T13:49:06;4.60;;;0.67;;
74892;SDS011;63446;56.272;43.922;2023-04-06T13:51:32;6.25;;;0.95;;
74892;SDS011;63446;56.272;43.922;2023-04-06T13:53:58;6.10;;;0.90;;
74892;SDS011;63446;56.272;43.922;2023-04-06T13:56:24;6.38;;;0.77;;
74892;SDS011;63446;56.272;43.922;2023-04-06T13:58:53;3.63;;;0.93;;
74892;SDS011;63446;56.272;43.922;2023-04-06T14:01:19;6.57;;;0.52;;
74892;SDS011;63446;56.272;43.922;2023-04-06T14:03:45;2.72;;;0.50;;
74892;SDS011;63446;56.272;43.922;2023-04-06T14:06:12;7.03;;;0.70;;
74892;SDS011;63446;56.272;43.922;2023-04-06T14:08:38;3.65;;;0.57;;
74892;SDS011;63446;56.272;43.922;2023-04-06T14:11:05;4.50;;;0.57;;
74892;SDS011;63446;56.272;43.922;2023-04-06T14:13:33;5.82;;;0.80;;
74892;SDS011;63446;56.272;43.922;2023-04-06T14:15:59;27.80;;;10.60;;
74892;SDS011;63446;56.272;43.922;2023-04-06T14:18:25;4.50;;;1.10;;
74892;SDS011;63446;56.272;43.922;2023-04-06T14:20:57;4.32;;;1.33;;
74892;SDS011;63446;56.272;43.922;2023-04-06T14:23:24;4.53;;;0.40;;
74892;SDS011;63446;56.272;43.922;2023-04-06T14:26:00;4.45;;;0.32;;
74892;SDS011;63446;56.272;43.922;2023-04-06T14:28:34;5.72;;;0.65;;
74892;SDS011;63446;56.272;43.922;2023-04-06T14:31:01;5.90;;;0.40;;
74892;SDS011;63446;56.272;43.922;2023-04-06T14:33:34;3.45;;;0.35;;
74892;SDS011;63446;56.272;43.922;2023-04-06T14:36:03;4.60;;;0.68;;
74892;SDS011;63446;56.272;43.922;2023-04-06T14:38:31;7.38;;;0.30;;
74892;SDS011;63446;56.272;43.922;2023-04-06T14:40:57;6.80;;;0.60;;
74892;SDS011;63446;56.272;43.922;2023-04-06T14:43:24;2.75;;;0.38;;
74892;SDS011;63446;56.272;43.922;2023-04-06T14:45:50;4.95;;;0.57;;
74892;SDS011;63446;56.272;43.922;2023-04-06T14:48:17;5.50;;;0.60;;
74892;SDS011;63446;56.272;43.922;2023-04-06T14:50:52;11.10;;;0.40;;
74892;SDS011;63446;56.272;43.922;2023-04-06T14:53:20;5.82;;;0.70;;